sensor_id;sensor_type;location;lat;lon;timestamp;P1;P2;P0
74333;PMS5003;62753;40.394;-80.022;2022-08-21T00:01:44;10;10;
74333;PMS5003;62753;40.394;-80.022;2022-08-21T00:04:09;11;11;
74333;PMS5003;62753;40.394;-80.022;2022-08-21T00:06:34;9;9;
74333;PMS5003;62753;40.394;-80.022;2022-08-21T00:08:59;11;11;
74333;PMS5003;62753;40.394;-80.022;2022-08-21T00:11:24;12;11;
74333;PMS5003;62753;40.394;-80.022;2022-08-21T00:13:50;12;11;
74333;PMS5003;62753;40.394;-80.022;2022-08-21T00:16:15;9;9;
74333;PMS5003;62753;40.394;-80.022;2022-08-21T00:18:40;11;11;
74333;PMS5003;62753;40.394;-80.022;2022-08-21T00:21:05;12;12;
74333;PMS5003;62753;40.394;-80.022;2022-08-21T00:23:30;11;11;
74333;PMS5003;62753;40.394;-80.022;2022-08-21T00:25:55;9;9;
74333;PMS5003;62753;40.394;-80.022;2022-08-21T00:28:20;12;12;
74333;PMS5003;62753;40.394;-80.022;2022-08-21T00:30:46;12;12;
74333;PMS5003;62753;40.394;-80.022;2022-08-21T00:33:11;12;12;
74333;PMS5003;62753;40.394;-80.022;2022-08-21T00:35:36;10;10;
74333;PMS5003;62753;40.394;-80.022;2022-08-21T00:38:02;10;10;
74333;PMS5003;62753;40.394;-80.022;2022-08-21T00:40:27;13;13;
74333;PMS5003;62753;40.394;-80.022;2022-08-21T00:42:51;12;12;
74333;PMS5003;62753;40.394;-80.022;2022-08-21T00:45:16;10;10;
74333;PMS5003;62753;40.394;-80.022;2022-08-21T00:47:41;13;13;
74333;PMS5003;62753;40.394;-80.022;2022-08-21T00:50:09;15;13;
74333;PMS5003;62753;40.394;-80.022;2022-08-21T00:52:32;11;11;
74333;PMS5003;62753;40.394;-80.022;2022-08-21T00:54:57;11;11;
74333;PMS5003;62753;40.394;-80.022;2022-08-21T00:57:24;12;12;
74333;PMS5003;62753;40.394;-80.022;2022-08-21T00:59:49;12;12;
74333;PMS5003;62753;40.394;-80.022;2022-08-21T01:02:16;13;12;
74333;PMS5003;62753;40.394;-80.022;2022-08-21T01:04:38;13;13;
74333;PMS5003;62753;40.394;-80.022;2022-08-21T01:07:04;16;15;
74333;PMS5003;62753;40.394;-80.022;2022-08-21T01:09:29;12;12;
74333;PMS5003;62753;40.394;-80.022;2022-08-21T01:11:54;12;12;
74333;PMS5003;62753;40.394;-80.022;2022-08-21T01:14:19;12;11;
74333;PMS5003;62753;40.394;-80.022;2022-08-21T01:16:45;14;14;
74333;PMS5003;62753;40.394;-80.022;2022-08-21T01:19:09;12;12;
74333;PMS5003;62753;40.394;-80.022;2022-08-21T01:21:34;12;12;
74333;PMS5003;62753;40.394;-80.022;2022-08-21T01:23:59;14;13;
74333;PMS5003;62753;40.394;-80.022;2022-08-21T01:26:25;11;11;
74333;PMS5003;62753;40.394;-80.022;2022-08-21T01:28:52;12;11;
74333;PMS5003;62753;40.394;-80.022;2022-08-21T01:31:15;11;11;
74333;PMS5003;62753;40.394;-80.022;2022-08-21T01:33:40;13;13;
74333;PMS5003;62753;40.394;-80.022;2022-08-21T01:36:05;10;10;
74333;PMS5003;62753;40.394;-80.022;2022-08-21T01:38:30;12;12;
74333;PMS5003;62753;40.394;-80.022;2022-08-21T01:40:55;13;12;
74333;PMS5003;62753;40.394;-80.022;2022-08-21T01:43:21;13;13;
74333;PMS5003;62753;40.394;-80.022;2022-08-21T01:45:46;11;11;
74333;PMS5003;62753;40.394;-80.022;2022-08-21T01:48:11;11;11;
74333;PMS5003;62753;40.394;-80.022;2022-08-21T01:50:37;12;12;
74333;PMS5003;62753;40.394;-80.022;2022-08-21T01:53:01;14;13;
74333;PMS5003;62753;40.394;-80.022;2022-08-21T01:55:27;11;11;
74333;PMS5003;62753;40.394;-80.022;2022-08-21T01:57:51;12;11;
74333;PMS5003;62753;40.394;-80.022;2022-08-21T02:00:19;13;13;
74333;PMS5003;62753;40.394;-80.022;2022-08-21T02:02:42;10;10;
74333;PMS5003;62753;40.394;-80.022;2022-08-21T02:05:08;12;12;
74333;PMS5003;62753;40.394;-80.022;2022-08-21T02:07:35;12;12;
74333;PMS5003;62753;40.394;-80.022;2022-08-21T02:09:57;12;12;
74333;PMS5003;62753;40.394;-80.022;2022-08-21T02:12:22;10;9;
74333;PMS5003;62753;40.394;-80.022;2022-08-21T02:14:48;12;11;
74333;PMS5003;62753;40.394;-80.022;2022-08-21T02:17:13;12;11;
74333;PMS5003;62753;40.394;-80.022;2022-08-21T02:19:38;11;11;
74333;PMS5003;62753;40.394;-80.022;2022-08-21T02:22:03;12;11;
74333;PMS5003;62753;40.394;-80.022;2022-08-21T02:24:28;9;9;
74333;PMS5003;62753;40.394;-80.022;2022-08-21T02:26:53;11;9;
74333;PMS5003;62753;40.394;-80.022;2022-08-21T02:29:18;11;11;
74333;PMS5003;62753;40.394;-80.022;2022-08-21T02:31:44;11;11;
74333;PMS5003;62753;40.394;-80.022;2022-08-21T02:34:09;9;9;
74333;PMS5003;62753;40.394;-80.022;2022-08-21T02:36:34;10;9;
74333;PMS5003;62753;40.394;-80.022;2022-08-21T02:39:00;7;7;
74333;PMS5003;62753;40.394;-80.022;2022-08-21T02:41:24;9;8;
74333;PMS5003;62753;40.394;-80.022;2022-08-21T02:43:49;9;9;
74333;PMS5003;62753;40.394;-80.022;2022-08-21T02:46:15;9;9;
74333;PMS5003;62753;40.394;-80.022;2022-08-21T02:48:40;8;8;
74333;PMS5003;62753;40.394;-80.022;2022-08-21T02:51:06;7;7;
74333;PMS5003;62753;40.394;-80.022;2022-08-21T02:53:30;11;9;
74333;PMS5003;62753;40.394;-80.022;2022-08-21T02:55:56;9;7;
74333;PMS5003;62753;40.394;-80.022;2022-08-21T02:58:21;8;8;
74333;PMS5003;62753;40.394;-80.022;2022-08-21T03:00:46;8;8;
74333;PMS5003;62753;40.394;-80.022;2022-08-21T03:03:11;7;7;
74333;PMS5003;62753;40.394;-80.022;2022-08-21T03:05:36;8;8;
74333;PMS5003;62753;40.394;-80.022;2022-08-21T03:08:01;8;8;
74333;PMS5003;62753;40.394;-80.022;2022-08-21T03:10:26;7;7;
74333;PMS5003;62753;40.394;-80.022;2022-08-21T03:12:51;8;8;
74333;PMS5003;62753;40.394;-80.022;2022-08-21T03:15:18;8;8;
74333;PMS5003;62753;40.394;-80.022;2022-08-21T03:17:41;7;7;
74333;PMS5003;62753;40.394;-80.022;2022-08-21T03:20:07;7;7;
74333;PMS5003;62753;40.394;-80.022;2022-08-21T03:22:32;8;8;
74333;PMS5003;62753;40.394;-80.022;2022-08-21T03:24:57;8;8;
74333;PMS5003;62753;40.394;-80.022;2022-08-21T03:27:22;4;4;
74333;PMS5003;62753;40.394;-80.022;2022-08-21T03:29:47;6;5;
74333;PMS5003;62753;40.394;-80.022;2022-08-21T03:32:12;4;4;
74333;PMS5003;62753;40.394;-80.022;2022-08-21T03:34:38;3;3;
74333;PMS5003;62753;40.394;-80.022;2022-08-21T03:37:03;3;3;
74333;PMS5003;62753;40.394;-80.022;2022-08-21T03:39:28;3;3;
74333;PMS5003;62753;40.394;-80.022;2022-08-21T03:41:53;4;3;
74333;PMS5003;62753;40.394;-80.022;2022-08-21T03:44:18;2;2;
74333;PMS5003;62753;40.394;-80.022;2022-08-21T03:46:43;4;3;
74333;PMS5003;62753;40.394;-80.022;2022-08-21T03:49:08;4;3;
74333;PMS5003;62753;40.394;-80.022;2022-08-21T03:51:34;2;2;
74333;PMS5003;62753;40.394;-80.022;2022-08-21T03:53:59;2;2;
74333;PMS5003;62753;40.394;-80.022;2022-08-21T03:56:24;2;2;
74333;PMS5003;62753;40.394;-80.022;2022-08-21T03:58:49;3;3;
74333;PMS5003;62753;40.394;-80.022;2022-08-21T04:01:14;5;5;
74333;PMS5003;62753;40.394;-80.022;2022-08-21T04:03:40;4;3;
74333;PMS5003;62753;40.394;-80.022;2022-08-21T04:06:05;2;2;
74333;PMS5003;62753;40.394;-80.022;2022-08-21T04:08:30;5;4;
74333;PMS5003;62753;40.394;-80.022;2022-08-21T04:10:56;4;3;
74333;PMS5003;62753;40.394;-80.022;2022-08-21T04:13:21;3;3;
74333;PMS5003;62753;40.394;-80.022;2022-08-21T04:15:46;2;2;
74333;PMS5003;62753;40.394;-80.022;2022-08-21T04:18:11;2;2;
74333;PMS5003;62753;40.394;-80.022;2022-08-21T04:20:37;2;2;
74333;PMS5003;62753;40.394;-80.022;2022-08-21T04:23:02;2;2;
74333;PMS5003;62753;40.394;-80.022;2022-08-21T04:25:27;2;2;
74333;PMS5003;62753;40.394;-80.022;2022-08-21T04:27:52;3;2;
74333;PMS5003;62753;40.394;-80.022;2022-08-21T04:30:17;2;2;
74333;PMS5003;62753;40.394;-80.022;2022-08-21T04:32:43;2;2;
74333;PMS5003;62753;40.394;-80.022;2022-08-21T04:35:09;2;2;
74333;PMS5003;62753;40.394;-80.022;2022-08-21T04:37:33;2;2;
74333;PMS5003;62753;40.394;-80.022;2022-08-21T04:39:58;3;3;
74333;PMS5003;62753;40.394;-80.022;2022-08-21T04:42:23;3;2;
74333;PMS5003;62753;40.394;-80.022;2022-08-21T04:44:49;4;2;
74333;PMS5003;62753;40.394;-80.022;2022-08-21T04:47:14;3;2;
74333;PMS5003;62753;40.394;-80.022;2022-08-21T04:49:39;4;4;
74333;PMS5003;62753;40.394;-80.022;2022-08-21T04:52:04;4;4;
74333;PMS5003;62753;40.394;-80.022;2022-08-21T04:54:29;4;4;
74333;PMS5003;62753;40.394;-80.022;2022-08-21T04:56:55;4;4;
74333;PMS5003;62753;40.394;-80.022;2022-08-21T04:59:21;3;2;
74333;PMS5003;62753;40.394;-80.022;2022-08-21T05:01:45;3;3;
74333;PMS5003;62753;40.394;-80.022;2022-08-21T05:04:11;3;3;
74333;PMS5003;62753;40.394;-80.022;2022-08-21T05:06:36;2;2;
74333;PMS5003;62753;40.394;-80.022;2022-08-21T05:09:01;3;2;
74333;PMS5003;62753;40.394;-80.022;2022-08-21T05:11:26;3;3;
74333;PMS5003;62753;40.394;-80.022;2022-08-21T05:13:51;4;3;
74333;PMS5003;62753;40.394;-80.022;2022-08-21T05:16:16;2;2;
74333;PMS5003;62753;40.394;-80.022;2022-08-21T05:18:42;2;2;
74333;PMS5003;62753;40.394;-80.022;2022-08-21T05:21:07;3;2;
74333;PMS5003;62753;40.394;-80.022;2022-08-21T05:23:32;2;2;
74333;PMS5003;62753;40.394;-80.022;2022-08-21T05:25:57;4;4;
74333;PMS5003;62753;40.394;-80.022;2022-08-21T05:28:23;1;1;
74333;PMS5003;62753;40.394;-80.022;2022-08-21T05:30:48;4;3;
74333;PMS5003;62753;40.394;-80.022;2022-08-21T05:33:13;4;4;
74333;PMS5003;62753;40.394;-80.022;2022-08-21T05:35:38;4;3;
74333;PMS5003;62753;40.394;-80.022;2022-08-21T05:38:03;4;3;
74333;PMS5003;62753;40.394;-80.022;2022-08-21T05:40:29;4;3;
74333;PMS5003;62753;40.394;-80.022;2022-08-21T05:42:54;3;3;
74333;PMS5003;62753;40.394;-80.022;2022-08-21T05:45:19;3;3;
74333;PMS5003;62753;40.394;-80.022;2022-08-21T05:47:44;3;3;
74333;PMS5003;62753;40.394;-80.022;2022-08-21T05:50:09;4;4;
74333;PMS5003;62753;40.394;-80.022;2022-08-21T05:52:35;3;3;
74333;PMS5003;62753;40.394;-80.022;2022-08-21T05:55:00;5;4;
74333;PMS5003;62753;40.394;-80.022;2022-08-21T05:57:25;4;3;
74333;PMS5003;62753;40.394;-80.022;2022-08-21T05:59:50;4;4;
74333;PMS5003;62753;40.394;-80.022;2022-08-21T06:02:16;3;3;
74333;PMS5003;62753;40.394;-80.022;2022-08-21T06:04:41;4;3;
74333;PMS5003;62753;40.394;-80.022;2022-08-21T06:07:06;4;4;
74333;PMS5003;62753;40.394;-80.022;2022-08-21T06:09:31;6;5;
74333;PMS5003;62753;40.394;-80.022;2022-08-21T06:11:56;5;4;
74333;PMS5003;62753;40.394;-80.022;2022-08-21T06:14:21;4;4;
74333;PMS5003;62753;40.394;-80.022;2022-08-21T06:16:48;4;4;
74333;PMS5003;62753;40.394;-80.022;2022-08-21T06:19:12;3;3;
74333;PMS5003;62753;40.394;-80.022;2022-08-21T06:21:37;4;4;
74333;PMS5003;62753;40.394;-80.022;2022-08-21T06:24:03;4;3;
74333;PMS5003;62753;40.394;-80.022;2022-08-21T06:26:28;6;5;
74333;PMS5003;62753;40.394;-80.022;2022-08-21T06:28:53;6;6;
74333;PMS5003;62753;40.394;-80.022;2022-08-21T06:31:19;5;5;
74333;PMS5003;62753;40.394;-80.022;2022-08-21T06:33:43;7;6;
74333;PMS5003;62753;40.394;-80.022;2022-08-21T06:36:09;6;6;
74333;PMS5003;62753;40.394;-80.022;2022-08-21T06:38:34;5;5;
74333;PMS5003;62753;40.394;-80.022;2022-08-21T06:40:59;5;5;
74333;PMS5003;62753;40.394;-80.022;2022-08-21T06:43:24;5;5;
74333;PMS5003;62753;40.394;-80.022;2022-08-21T06:45:49;5;5;
74333;PMS5003;62753;40.394;-80.022;2022-08-21T06:48:15;5;5;
74333;PMS5003;62753;40.394;-80.022;2022-08-21T06:50:40;4;4;
74333;PMS5003;62753;40.394;-80.022;2022-08-21T06:53:06;5;5;
74333;PMS5003;62753;40.394;-80.022;2022-08-21T06:55:30;6;5;
74333;PMS5003;62753;40.394;-80.022;2022-08-21T06:57:56;6;6;
74333;PMS5003;62753;40.394;-80.022;2022-08-21T07:00:21;5;5;
74333;PMS5003;62753;40.394;-80.022;2022-08-21T07:02:46;6;6;
74333;PMS5003;62753;40.394;-80.022;2022-08-21T07:05:12;5;5;
74333;PMS5003;62753;40.394;-80.022;2022-08-21T07:07:36;7;7;
74333;PMS5003;62753;40.394;-80.022;2022-08-21T07:10:02;7;7;
74333;PMS5003;62753;40.394;-80.022;2022-08-21T07:12:27;7;5;
74333;PMS5003;62753;40.394;-80.022;2022-08-21T07:14:52;7;7;
74333;PMS5003;62753;40.394;-80.022;2022-08-21T07:17:17;7;7;
74333;PMS5003;62753;40.394;-80.022;2022-08-21T07:19:43;7;7;
74333;PMS5003;62753;40.394;-80.022;2022-08-21T07:22:08;5;5;
74333;PMS5003;62753;40.394;-80.022;2022-08-21T07:24:33;7;7;
74333;PMS5003;62753;40.394;-80.022;2022-08-21T07:26:58;8;7;
74333;PMS5003;62753;40.394;-80.022;2022-08-21T07:29:24;7;7;
74333;PMS5003;62753;40.394;-80.022;2022-08-21T07:31:49;9;8;
74333;PMS5003;62753;40.394;-80.022;2022-08-21T07:34:15;8;7;
74333;PMS5003;62753;40.394;-80.022;2022-08-21T07:36:40;8;8;
74333;PMS5003;62753;40.394;-80.022;2022-08-21T07:39:05;9;9;
74333;PMS5003;62753;40.394;-80.022;2022-08-21T07:41:31;8;8;
74333;PMS5003;62753;40.394;-80.022;2022-08-21T07:43:56;10;9;
74333;PMS5003;62753;40.394;-80.022;2022-08-21T07:46:21;10;10;
74333;PMS5003;62753;40.394;-80.022;2022-08-21T07:48:46;10;9;
74333;PMS5003;62753;40.394;-80.022;2022-08-21T07:51:12;9;8;
74333;PMS5003;62753;40.394;-80.022;2022-08-21T07:53:37;8;7;
74333;PMS5003;62753;40.394;-80.022;2022-08-21T07:56:02;11;8;
74333;PMS5003;62753;40.394;-80.022;2022-08-21T07:58:27;7;7;
74333;PMS5003;62753;40.394;-80.022;2022-08-21T08:00:52;9;8;
74333;PMS5003;62753;40.394;-80.022;2022-08-21T08:03:17;9;8;
74333;PMS5003;62753;40.394;-80.022;2022-08-21T08:05:43;8;8;
74333;PMS5003;62753;40.394;-80.022;2022-08-21T08:08:08;10;10;
74333;PMS5003;62753;40.394;-80.022;2022-08-21T08:10:33;10;9;
74333;PMS5003;62753;40.394;-80.022;2022-08-21T08:12:58;7;7;
74333;PMS5003;62753;40.394;-80.022;2022-08-21T08:15:25;10;9;
74333;PMS5003;62753;40.394;-80.022;2022-08-21T08:17:49;8;8;
74333;PMS5003;62753;40.394;-80.022;2022-08-21T08:20:15;5;5;
74333;PMS5003;62753;40.394;-80.022;2022-08-21T08:22:39;10;10;
74333;PMS5003;62753;40.394;-80.022;2022-08-21T08:25:06;12;12;
74333;PMS5003;62753;40.394;-80.022;2022-08-21T08:27:30;12;11;
74333;PMS5003;62753;40.394;-80.022;2022-08-21T08:29:56;13;13;
74333;PMS5003;62753;40.394;-80.022;2022-08-21T08:32:20;14;14;
74333;PMS5003;62753;40.394;-80.022;2022-08-21T08:34:47;12;12;
74333;PMS5003;62753;40.394;-80.022;2022-08-21T08:37:11;15;14;
74333;PMS5003;62753;40.394;-80.022;2022-08-21T08:39:37;18;16;
74333;PMS5003;62753;40.394;-80.022;2022-08-21T08:42:05;14;12;
74333;PMS5003;62753;40.394;-80.022;2022-08-21T08:44:27;12;12;
74333;PMS5003;62753;40.394;-80.022;2022-08-21T08:46:52;16;15;
74333;PMS5003;62753;40.394;-80.022;2022-08-21T08:49:18;14;13;
74333;PMS5003;62753;40.394;-80.022;2022-08-21T08:51:48;17;16;
74333;PMS5003;62753;40.394;-80.022;2022-08-21T08:54:10;14;14;
74333;PMS5003;62753;40.394;-80.022;2022-08-21T08:56:34;17;16;
74333;PMS5003;62753;40.394;-80.022;2022-08-21T08:59:00;18;17;
74333;PMS5003;62753;40.394;-80.022;2022-08-21T09:01:24;17;17;
74333;PMS5003;62753;40.394;-80.022;2022-08-21T09:03:50;16;15;
74333;PMS5003;62753;40.394;-80.022;2022-08-21T09:06:18;11;11;
74333;PMS5003;62753;40.394;-80.022;2022-08-21T09:08:45;15;14;
74333;PMS5003;62753;40.394;-80.022;2022-08-21T09:11:08;14;14;
74333;PMS5003;62753;40.394;-80.022;2022-08-21T09:13:34;16;14;
74333;PMS5003;62753;40.394;-80.022;2022-08-21T09:15:59;16;15;
74333;PMS5003;62753;40.394;-80.022;2022-08-21T09:18:26;14;13;
74333;PMS5003;62753;40.394;-80.022;2022-08-21T09:20:56;14;13;
74333;PMS5003;62753;40.394;-80.022;2022-08-21T09:23:17;12;11;
74333;PMS5003;62753;40.394;-80.022;2022-08-21T09:25:40;12;12;
74333;PMS5003;62753;40.394;-80.022;2022-08-21T09:28:03;16;13;
74333;PMS5003;62753;40.394;-80.022;2022-08-21T09:30:31;9;9;
74333;PMS5003;62753;40.394;-80.022;2022-08-21T09:32:54;13;13;
74333;PMS5003;62753;40.394;-80.022;2022-08-21T09:35:20;14;14;
74333;PMS5003;62753;40.394;-80.022;2022-08-21T09:37:46;11;11;
74333;PMS5003;62753;40.394;-80.022;2022-08-21T09:42:35;12;11;
74333;PMS5003;62753;40.394;-80.022;2022-08-21T09:45:05;11;11;
74333;PMS5003;62753;40.394;-80.022;2022-08-21T09:47:25;12;12;
74333;PMS5003;62753;40.394;-80.022;2022-08-21T09:49:50;12;12;
74333;PMS5003;62753;40.394;-80.022;2022-08-21T09:52:16;12;11;
74333;PMS5003;62753;40.394;-80.022;2022-08-21T09:54:42;13;13;
74333;PMS5003;62753;40.394;-80.022;2022-08-21T09:57:12;13;12;
74333;PMS5003;62753;40.394;-80.022;2022-08-21T09:59:33;13;13;
74333;PMS5003;62753;40.394;-80.022;2022-08-21T10:01:58;13;13;
74333;PMS5003;62753;40.394;-80.022;2022-08-21T10:04:24;12;12;
74333;PMS5003;62753;40.394;-80.022;2022-08-21T10:06:49;12;12;
74333;PMS5003;62753;40.394;-80.022;2022-08-21T10:09:15;10;10;
74333;PMS5003;62753;40.394;-80.022;2022-08-21T10:11:39;14;14;
74333;PMS5003;62753;40.394;-80.022;2022-08-21T10:14:07;13;12;
74333;PMS5003;62753;40.394;-80.022;2022-08-21T10:16:32;10;10;
74333;PMS5003;62753;40.394;-80.022;2022-08-21T10:18:59;10;10;
74333;PMS5003;62753;40.394;-80.022;2022-08-21T10:21:21;10;10;
74333;PMS5003;62753;40.394;-80.022;2022-08-21T10:23:49;11;10;
74333;PMS5003;62753;40.394;-80.022;2022-08-21T10:26:11;11;10;
74333;PMS5003;62753;40.394;-80.022;2022-08-21T10:28:37;8;8;
74333;PMS5003;62753;40.394;-80.022;2022-08-21T10:31:02;10;9;
74333;PMS5003;62753;40.394;-80.022;2022-08-21T10:33:29;9;9;
74333;PMS5003;62753;40.394;-80.022;2022-08-21T10:35:53;12;11;
74333;PMS5003;62753;40.394;-80.022;2022-08-21T10:40:42;8;8;
74333;PMS5003;62753;40.394;-80.022;2022-08-21T10:43:10;10;10;
74333;PMS5003;62753;40.394;-80.022;2022-08-21T10:45:38;11;10;
74333;PMS5003;62753;40.394;-80.022;2022-08-21T10:47:59;11;11;
74333;PMS5003;62753;40.394;-80.022;2022-08-21T10:50:27;9;9;
74333;PMS5003;62753;40.394;-80.022;2022-08-21T10:52:51;9;9;
74333;PMS5003;62753;40.394;-80.022;2022-08-21T10:55:14;9;9;
74333;PMS5003;62753;40.394;-80.022;2022-08-21T10:57:40;11;10;
74333;PMS5003;62753;40.394;-80.022;2022-08-21T11:00:04;10;10;
74333;PMS5003;62753;40.394;-80.022;2022-08-21T11:02:30;12;12;
74333;PMS5003;62753;40.394;-80.022;2022-08-21T11:04:55;10;10;
74333;PMS5003;62753;40.394;-80.022;2022-08-21T11:07:21;11;11;
74333;PMS5003;62753;40.394;-80.022;2022-08-21T11:09:45;9;9;
74333;PMS5003;62753;40.394;-80.022;2022-08-21T11:12:12;8;8;
74333;PMS5003;62753;40.394;-80.022;2022-08-21T11:14:38;11;10;
74333;PMS5003;62753;40.394;-80.022;2022-08-21T11:17:01;11;10;
74333;PMS5003;62753;40.394;-80.022;2022-08-21T11:19:27;9;9;
74333;PMS5003;62753;40.394;-80.022;2022-08-21T11:21:52;9;9;
74333;PMS5003;62753;40.394;-80.022;2022-08-21T11:24:19;8;7;
74333;PMS5003;62753;40.394;-80.022;2022-08-21T11:26:43;7;7;
74333;PMS5003;62753;40.394;-80.022;2022-08-21T11:29:09;7;7;
74333;PMS5003;62753;40.394;-80.022;2022-08-21T11:31:35;9;9;
74333;PMS5003;62753;40.394;-80.022;2022-08-21T11:34:02;9;8;
74333;PMS5003;62753;40.394;-80.022;2022-08-21T11:36:23;7;7;
74333;PMS5003;62753;40.394;-80.022;2022-08-21T11:38:50;8;7;
74333;PMS5003;62753;40.394;-80.022;2022-08-21T11:41:16;9;9;
74333;PMS5003;62753;40.394;-80.022;2022-08-21T11:43:39;9;9;
74333;PMS5003;62753;40.394;-80.022;2022-08-21T11:46:07;10;9;
74333;PMS5003;62753;40.394;-80.022;2022-08-21T11:48:33;11;10;
74333;PMS5003;62753;40.394;-80.022;2022-08-21T11:50:54;13;11;
74333;PMS5003;62753;40.394;-80.022;2022-08-21T11:53:21;12;12;
74333;PMS5003;62753;40.394;-80.022;2022-08-21T11:55:46;12;12;
74333;PMS5003;62753;40.394;-80.022;2022-08-21T11:58:15;10;10;
74333;PMS5003;62753;40.394;-80.022;2022-08-21T12:00:38;10;10;
74333;PMS5003;62753;40.394;-80.022;2022-08-21T12:03:06;9;8;
74333;PMS5003;62753;40.394;-80.022;2022-08-21T12:05:27;8;8;
74333;PMS5003;62753;40.394;-80.022;2022-08-21T12:10:18;9;8;
74333;PMS5003;62753;40.394;-80.022;2022-08-21T12:12:43;9;8;
74333;PMS5003;62753;40.394;-80.022;2022-08-21T12:15:15;8;8;
74333;PMS5003;62753;40.394;-80.022;2022-08-21T12:17:35;10;9;
74333;PMS5003;62753;40.394;-80.022;2022-08-21T12:19:58;10;9;
74333;PMS5003;62753;40.394;-80.022;2022-08-21T12:22:30;9;9;
74333;PMS5003;62753;40.394;-80.022;2022-08-21T12:24:49;8;7;
74333;PMS5003;62753;40.394;-80.022;2022-08-21T12:27:19;6;6;
74333;PMS5003;62753;40.394;-80.022;2022-08-21T12:29:43;7;7;
74333;PMS5003;62753;40.394;-80.022;2022-08-21T12:32:19;9;9;
74333;PMS5003;62753;40.394;-80.022;2022-08-21T12:34:32;6;5;
74333;PMS5003;62753;40.394;-80.022;2022-08-21T12:36:56;7;7;
74333;PMS5003;62753;40.394;-80.022;2022-08-21T12:39:22;6;6;
74333;PMS5003;62753;40.394;-80.022;2022-08-21T12:41:46;9;8;
74333;PMS5003;62753;40.394;-80.022;2022-08-21T12:44:12;5;5;
74333;PMS5003;62753;40.394;-80.022;2022-08-21T12:46:36;6;6;
74333;PMS5003;62753;40.394;-80.022;2022-08-21T12:49:02;8;7;
74333;PMS5003;62753;40.394;-80.022;2022-08-21T12:51:28;5;5;
74333;PMS5003;62753;40.394;-80.022;2022-08-21T12:53:52;5;5;
74333;PMS5003;62753;40.394;-80.022;2022-08-21T12:56:18;5;5;
74333;PMS5003;62753;40.394;-80.022;2022-08-21T12:58:44;4;3;
74333;PMS5003;62753;40.394;-80.022;2022-08-21T13:01:07;2;2;
74333;PMS5003;62753;40.394;-80.022;2022-08-21T13:03:34;5;4;
74333;PMS5003;62753;40.394;-80.022;2022-08-21T13:05:58;2;2;
74333;PMS5003;62753;40.394;-80.022;2022-08-21T13:08:23;5;5;
74333;PMS5003;62753;40.394;-80.022;2022-08-21T13:10:49;6;5;
74333;PMS5003;62753;40.394;-80.022;2022-08-21T13:13:16;4;4;
74333;PMS5003;62753;40.394;-80.022;2022-08-21T13:15:39;4;4;
74333;PMS5003;62753;40.394;-80.022;2022-08-21T13:18:04;3;3;
74333;PMS5003;62753;40.394;-80.022;2022-08-21T13:20:30;5;5;
74333;PMS5003;62753;40.394;-80.022;2022-08-21T13:22:54;5;4;
74333;PMS5003;62753;40.394;-80.022;2022-08-21T13:25:20;3;3;
74333;PMS5003;62753;40.394;-80.022;2022-08-21T13:27:55;3;3;
74333;PMS5003;62753;40.394;-80.022;2022-08-21T13:30:11;4;4;
74333;PMS5003;62753;40.394;-80.022;2022-08-21T13:32:36;4;4;
74333;PMS5003;62753;40.394;-80.022;2022-08-21T13:37:25;5;5;
74333;PMS5003;62753;40.394;-80.022;2022-08-21T13:39:51;6;5;
74333;PMS5003;62753;40.394;-80.022;2022-08-21T13:42:15;2;2;
74333;PMS5003;62753;40.394;-80.022;2022-08-21T13:44:42;4;4;
74333;PMS5003;62753;40.394;-80.022;2022-08-21T13:47:06;3;3;
74333;PMS5003;62753;40.394;-80.022;2022-08-21T13:49:32;3;3;
74333;PMS5003;62753;40.394;-80.022;2022-08-21T13:51:56;5;5;
74333;PMS5003;62753;40.394;-80.022;2022-08-21T13:54:23;4;3;
74333;PMS5003;62753;40.394;-80.022;2022-08-21T13:56:47;3;3;
74333;PMS5003;62753;40.394;-80.022;2022-08-21T13:59:12;3;3;
74333;PMS5003;62753;40.394;-80.022;2022-08-21T14:01:37;4;4;
74333;PMS5003;62753;40.394;-80.022;2022-08-21T14:04:04;4;3;
74333;PMS5003;62753;40.394;-80.022;2022-08-21T14:06:28;5;5;
74333;PMS5003;62753;40.394;-80.022;2022-08-21T14:08:53;3;3;
74333;PMS5003;62753;40.394;-80.022;2022-08-21T14:11:18;3;3;
74333;PMS5003;62753;40.394;-80.022;2022-08-21T14:13:43;4;4;
74333;PMS5003;62753;40.394;-80.022;2022-08-21T14:16:11;3;3;
74333;PMS5003;62753;40.394;-80.022;2022-08-21T14:18:33;5;4;
74333;PMS5003;62753;40.394;-80.022;2022-08-21T14:21:05;4;4;
74333;PMS5003;62753;40.394;-80.022;2022-08-21T14:23:24;5;5;
74333;PMS5003;62753;40.394;-80.022;2022-08-21T14:25:49;5;5;
74333;PMS5003;62753;40.394;-80.022;2022-08-21T14:28:20;4;4;
74333;PMS5003;62753;40.394;-80.022;2022-08-21T14:30:39;5;5;
74333;PMS5003;62753;40.394;-80.022;2022-08-21T14:33:07;5;5;
74333;PMS5003;62753;40.394;-80.022;2022-08-21T14:35:29;5;5;
74333;PMS5003;62753;40.394;-80.022;2022-08-21T14:37:54;5;5;
74333;PMS5003;62753;40.394;-80.022;2022-08-21T14:40:20;3;3;
74333;PMS5003;62753;40.394;-80.022;2022-08-21T14:42:45;3;3;
74333;PMS5003;62753;40.394;-80.022;2022-08-21T14:45:12;6;6;
74333;PMS5003;62753;40.394;-80.022;2022-08-21T14:47:35;5;5;
74333;PMS5003;62753;40.394;-80.022;2022-08-21T14:50:00;4;4;
74333;PMS5003;62753;40.394;-80.022;2022-08-21T14:52:25;3;3;
74333;PMS5003;62753;40.394;-80.022;2022-08-21T14:54:50;3;3;
74333;PMS5003;62753;40.394;-80.022;2022-08-21T14:57:16;5;5;
74333;PMS5003;62753;40.394;-80.022;2022-08-21T14:59:41;4;4;
74333;PMS5003;62753;40.394;-80.022;2022-08-21T15:02:07;4;4;
74333;PMS5003;62753;40.394;-80.022;2022-08-21T15:04:31;7;7;
74333;PMS5003;62753;40.394;-80.022;2022-08-21T15:06:57;9;6;
74333;PMS5003;62753;40.394;-80.022;2022-08-21T15:09:22;6;5;
74333;PMS5003;62753;40.394;-80.022;2022-08-21T15:11:48;8;8;
74333;PMS5003;62753;40.394;-80.022;2022-08-21T15:14:14;8;8;
74333;PMS5003;62753;40.394;-80.022;2022-08-21T15:16:38;9;8;
74333;PMS5003;62753;40.394;-80.022;2022-08-21T15:19:03;9;9;
74333;PMS5003;62753;40.394;-80.022;2022-08-21T15:21:28;8;8;
74333;PMS5003;62753;40.394;-80.022;2022-08-21T15:23:53;7;7;
74333;PMS5003;62753;40.394;-80.022;2022-08-21T15:26:18;9;9;
74333;PMS5003;62753;40.394;-80.022;2022-08-21T15:28:44;10;10;
74333;PMS5003;62753;40.394;-80.022;2022-08-21T15:31:09;14;13;
74333;PMS5003;62753;40.394;-80.022;2022-08-21T15:33:34;27;24;
74333;PMS5003;62753;40.394;-80.022;2022-08-21T15:36:00;30;23;
74333;PMS5003;62753;40.394;-80.022;2022-08-21T15:38:25;23;23;
74333;PMS5003;62753;40.394;-80.022;2022-08-21T15:40:50;19;18;
74333;PMS5003;62753;40.394;-80.022;2022-08-21T15:43:18;17;17;
74333;PMS5003;62753;40.394;-80.022;2022-08-21T15:45:41;15;13;
74333;PMS5003;62753;40.394;-80.022;2022-08-21T15:48:06;12;12;
74333;PMS5003;62753;40.394;-80.022;2022-08-21T15:50:31;11;11;
74333;PMS5003;62753;40.394;-80.022;2022-08-21T15:52:56;7;7;
74333;PMS5003;62753;40.394;-80.022;2022-08-21T15:55:22;7;7;
74333;PMS5003;62753;40.394;-80.022;2022-08-21T15:57:48;8;8;
74333;PMS5003;62753;40.394;-80.022;2022-08-21T16:00:13;8;8;
74333;PMS5003;62753;40.394;-80.022;2022-08-21T16:02:37;5;5;